sensor_id;sensor_type;location;lat;lon;timestamp;temperature;humidity
20946;DHT22;10632;51.276;7.116;2023-12-07T00:01:43;1.80;99.90
20946;DHT22;10632;51.276;7.116;2023-12-07T00:04:12;1.80;99.90
20946;DHT22;10632;51.276;7.116;2023-12-07T00:06:38;1.80;99.90
20946;DHT22;10632;51.276;7.116;2023-12-07T00:09:05;1.70;99.90
20946;DHT22;10632;51.276;7.116;2023-12-07T00:11:34;1.80;99.90
20946;DHT22;10632;51.276;7.116;2023-12-07T00:14:01;1.80;99.90
20946;DHT22;10632;51.276;7.116;2023-12-07T00:16:28;1.80;99.90
20946;DHT22;10632;51.276;7.116;2023-12-07T00:18:55;1.80;99.90
20946;DHT22;10632;51.276;7.116;2023-12-07T00:21:23;1.70;99.90
20946;DHT22;10632;51.276;7.116;2023-12-07T00:23:50;1.70;99.90
20946;DHT22;10632;51.276;7.116;2023-12-07T00:26:17;1.70;99.90
20946;DHT22;10632;51.276;7.116;2023-12-07T00:28:44;1.70;99.90
20946;DHT22;10632;51.276;7.116;2023-12-07T00:31:11;1.70;99.90
20946;DHT22;10632;51.276;7.116;2023-12-07T00:33:38;1.70;99.90
20946;DHT22;10632;51.276;7.116;2023-12-07T00:41:09;1.70;99.90
20946;DHT22;10632;51.276;7.116;2023-12-07T00:43:36;1.70;99.90
20946;DHT22;10632;51.276;7.116;2023-12-07T00:46:03;1.60;99.90
20946;DHT22;10632;51.276;7.116;2023-12-07T00:48:30;1.60;99.90
20946;DHT22;10632;51.276;7.116;2023-12-07T00:50:57;1.60;99.90
20946;DHT22;10632;51.276;7.116;2023-12-07T00:53:24;1.60;99.90
20946;DHT22;10632;51.276;7.116;2023-12-07T00:55:50;1.50;99.90
20946;DHT22;10632;51.276;7.116;2023-12-07T00:58:19;1.50;99.90
20946;DHT22;10632;51.276;7.116;2023-12-07T01:00:46;1.50;99.90
20946;DHT22;10632;51.276;7.116;2023-12-07T01:03:13;1.50;99.90
20946;DHT22;10632;51.276;7.116;2023-12-07T01:05:40;1.50;99.90
20946;DHT22;10632;51.276;7.116;2023-12-07T01:08:07;1.50;99.90
20946;DHT22;10632;51.276;7.116;2023-12-07T01:10:33;1.60;99.90
20946;DHT22;10632;51.276;7.116;2023-12-07T01:13:00;1.60;99.90
20946;DHT22;10632;51.276;7.116;2023-12-07T01:15:29;1.60;99.90
20946;DHT22;10632;51.276;7.116;2023-12-07T01:17:55;1.60;99.90
20946;DHT22;10632;51.276;7.116;2023-12-07T01:20:22;1.60;99.90
20946;DHT22;10632;51.276;7.116;2023-12-07T01:22:49;1.50;99.90
20946;DHT22;10632;51.276;7.116;2023-12-07T01:25:15;1.60;99.90
20946;DHT22;10632;51.276;7.116;2023-12-07T01:27:46;1.60;99.90
20946;DHT22;10632;51.276;7.116;2023-12-07T01:30:13;1.60;99.90
20946;DHT22;10632;51.276;7.116;2023-12-07T01:32:42;1.60;99.90
20946;DHT22;10632;51.276;7.116;2023-12-07T01:35:09;1.60;99.90
20946;DHT22;10632;51.276;7.116;2023-12-07T01:37:35;1.60;99.90
20946;DHT22;10632;51.276;7.116;2023-12-07T01:40:03;1.60;99.90
20946;DHT22;10632;51.276;7.116;2023-12-07T01:42:36;1.50;99.90
20946;DHT22;10632;51.276;7.116;2023-12-07T01:45:03;1.40;99.90
20946;DHT22;10632;51.276;7.116;2023-12-07T01:47:31;1.50;99.90
20946;DHT22;10632;51.276;7.116;2023-12-07T01:49:59;1.50;99.90
20946;DHT22;10632;51.276;7.116;2023-12-07T01:52:30;1.50;99.90
20946;DHT22;10632;51.276;7.116;2023-12-07T01:54:58;1.50;99.90
20946;DHT22;10632;51.276;7.116;2023-12-07T01:57:25;1.60;99.90
20946;DHT22;10632;51.276;7.116;2023-12-07T01:59:52;1.60;99.90
20946;DHT22;10632;51.276;7.116;2023-12-07T02:02:19;1.60;99.90
20946;DHT22;10632;51.276;7.116;2023-12-07T02:04:46;1.60;99.90
20946;DHT22;10632;51.276;7.116;2023-12-07T02:07:14;1.70;99.90
20946;DHT22;10632;51.276;7.116;2023-12-07T02:09:41;1.70;99.90
20946;DHT22;10632;51.276;7.116;2023-12-07T02:12:09;1.70;99.90
20946;DHT22;10632;51.276;7.116;2023-12-07T02:14:36;1.70;99.90
20946;DHT22;10632;51.276;7.116;2023-12-07T02:17:08;1.80;99.90
20946;DHT22;10632;51.276;7.116;2023-12-07T02:19:49;1.70;99.90
20946;DHT22;10632;51.276;7.116;2023-12-07T02:22:24;1.80;99.90
20946;DHT22;10632;51.276;7.116;2023-12-07T02:25:05;1.80;99.90
20946;DHT22;10632;51.276;7.116;2023-12-07T02:27:36;1.80;99.90
20946;DHT22;10632;51.276;7.116;2023-12-07T02:30:03;1.80;99.90
20946;DHT22;10632;51.276;7.116;2023-12-07T02:32:31;1.80;99.90
20946;DHT22;10632;51.276;7.116;2023-12-07T02:34:57;1.80;99.90
20946;DHT22;10632;51.276;7.116;2023-12-07T02:37:27;1.70;99.90
20946;DHT22;10632;51.276;7.116;2023-12-07T02:39:55;1.80;99.90
20946;DHT22;10632;51.276;7.116;2023-12-07T02:42:22;1.70;99.90
20946;DHT22;10632;51.276;7.116;2023-12-07T02:44:52;1.70;99.90
20946;DHT22;10632;51.276;7.116;2023-12-07T02:47:19;1.60;99.90
20946;DHT22;10632;51.276;7.116;2023-12-07T02:49:46;1.60;99.90
20946;DHT22;10632;51.276;7.116;2023-12-07T02:52:15;1.60;99.90
20946;DHT22;10632;51.276;7.116;2023-12-07T02:54:42;1.50;99.90
20946;DHT22;10632;51.276;7.116;2023-12-07T02:57:09;1.50;99.90
20946;DHT22;10632;51.276;7.116;2023-12-07T02:59:36;1.50;99.90
20946;DHT22;10632;51.276;7.116;2023-12-07T03:02:05;1.50;99.90
20946;DHT22;10632;51.276;7.116;2023-12-07T03:04:32;1.50;99.90
20946;DHT22;10632;51.276;7.116;2023-12-07T03:07:01;1.60;99.90
20946;DHT22;10632;51.276;7.116;2023-12-07T03:09:28;1.60;99.90
20946;DHT22;10632;51.276;7.116;2023-12-07T03:11:57;1.50;99.90
20946;DHT22;10632;51.276;7.116;2023-12-07T03:14:23;1.50;99.90
20946;DHT22;10632;51.276;7.116;2023-12-07T03:16:50;1.60;99.90
20946;DHT22;10632;51.276;7.116;2023-12-07T03:19:18;1.60;99.90
20946;DHT22;10632;51.276;7.116;2023-12-07T03:21:45;1.50;99.90
20946;DHT22;10632;51.276;7.116;2023-12-07T03:24:13;1.60;99.90
20946;DHT22;10632;51.276;7.116;2023-12-07T03:26:40;1.60;99.90
20946;DHT22;10632;51.276;7.116;2023-12-07T03:29:07;1.60;99.90
20946;DHT22;10632;51.276;7.116;2023-12-07T03:31:34;1.60;99.90
20946;DHT22;10632;51.276;7.116;2023-12-07T03:34:01;1.60;99.90
20946;DHT22;10632;51.276;7.116;2023-12-07T03:36:30;1.60;99.90
20946;DHT22;10632;51.276;7.116;2023-12-07T03:38:57;1.60;99.90
20946;DHT22;10632;51.276;7.116;2023-12-07T03:41:24;1.60;99.90
20946;DHT22;10632;51.276;7.116;2023-12-07T03:43:50;1.60;99.90
20946;DHT22;10632;51.276;7.116;2023-12-07T03:46:17;1.60;99.90
20946;DHT22;10632;51.276;7.116;2023-12-07T03:48:44;1.70;99.90
20946;DHT22;10632;51.276;7.116;2023-12-07T03:51:13;1.60;99.90
20946;DHT22;10632;51.276;7.116;2023-12-07T03:53:43;1.70;99.90
20946;DHT22;10632;51.276;7.116;2023-12-07T03:56:10;1.80;99.90
20946;DHT22;10632;51.276;7.116;2023-12-07T03:58:37;2.00;99.90
20946;DHT22;10632;51.276;7.116;2023-12-07T04:01:04;2.00;99.90
20946;DHT22;10632;51.276;7.116;2023-12-07T04:03:32;1.90;99.90
20946;DHT22;10632;51.276;7.116;2023-12-07T04:05:59;1.90;99.90
20946;DHT22;10632;51.276;7.116;2023-12-07T04:08:26;1.90;99.90
20946;DHT22;10632;51.276;7.116;2023-12-07T04:10:54;1.90;99.90
20946;DHT22;10632;51.276;7.116;2023-12-07T04:13:21;1.90;99.90
20946;DHT22;10632;51.276;7.116;2023-12-07T04:15:48;1.80;99.90
20946;DHT22;10632;51.276;7.116;2023-12-07T04:18:15;1.90;99.90
20946;DHT22;10632;51.276;7.116;2023-12-07T04:20:42;1.90;99.90
20946;DHT22;10632;51.276;7.116;2023-12-07T04:23:09;1.90;99.90
20946;DHT22;10632;51.276;7.116;2023-12-07T04:25:36;1.90;99.90
20946;DHT22;10632;51.276;7.116;2023-12-07T04:28:04;1.90;99.90
20946;DHT22;10632;51.276;7.116;2023-12-07T04:30:31;1.90;99.90
20946;DHT22;10632;51.276;7.116;2023-12-07T04:32:58;1.90;99.90
20946;DHT22;10632;51.276;7.116;2023-12-07T04:35:25;2.00;99.90
20946;DHT22;10632;51.276;7.116;2023-12-07T04:37:52;2.00;99.90
20946;DHT22;10632;51.276;7.116;2023-12-07T04:40:19;1.90;99.90
20946;DHT22;10632;51.276;7.116;2023-12-07T04:42:46;1.90;99.90
20946;DHT22;10632;51.276;7.116;2023-12-07T04:45:14;1.90;99.90
20946;DHT22;10632;51.276;7.116;2023-12-07T04:47:41;1.90;99.90
20946;DHT22;10632;51.276;7.116;2023-12-07T04:50:09;1.90;99.90
20946;DHT22;10632;51.276;7.116;2023-12-07T04:52:36;1.90;99.90
20946;DHT22;10632;51.276;7.116;2023-12-07T04:55:03;2.00;99.90
20946;DHT22;10632;51.276;7.116;2023-12-07T04:57:32;2.00;99.90
20946;DHT22;10632;51.276;7.116;2023-12-07T04:59:58;2.00;99.90
20946;DHT22;10632;51.276;7.116;2023-12-07T05:02:27;2.10;99.90
20946;DHT22;10632;51.276;7.116;2023-12-07T05:04:54;2.20;99.90
20946;DHT22;10632;51.276;7.116;2023-12-07T05:07:21;2.20;99.90
20946;DHT22;10632;51.276;7.116;2023-12-07T05:09:49;2.30;99.90
20946;DHT22;10632;51.276;7.116;2023-12-07T05:12:16;2.20;99.90
20946;DHT22;10632;51.276;7.116;2023-12-07T05:14:43;2.20;99.90
20946;DHT22;10632;51.276;7.116;2023-12-07T05:17:10;2.20;99.90
20946;DHT22;10632;51.276;7.116;2023-12-07T05:19:38;2.20;99.90
20946;DHT22;10632;51.276;7.116;2023-12-07T05:22:05;2.10;99.90
20946;DHT22;10632;51.276;7.116;2023-12-07T05:24:32;2.20;99.90
20946;DHT22;10632;51.276;7.116;2023-12-07T05:27:00;2.20;99.90
20946;DHT22;10632;51.276;7.116;2023-12-07T05:29:26;2.10;99.90
20946;DHT22;10632;51.276;7.116;2023-12-07T05:31:53;2.10;99.90
20946;DHT22;10632;51.276;7.116;2023-12-07T05:34:20;2.10;99.90
20946;DHT22;10632;51.276;7.116;2023-12-07T05:36:49;2.10;99.90
20946;DHT22;10632;51.276;7.116;2023-12-07T05:39:16;2.10;99.90
20946;DHT22;10632;51.276;7.116;2023-12-07T05:41:44;2.10;99.90
20946;DHT22;10632;51.276;7.116;2023-12-07T05:44:12;2.10;99.90
20946;DHT22;10632;51.276;7.116;2023-12-07T05:46:43;2.20;99.90
20946;DHT22;10632;51.276;7.116;2023-12-07T05:49:10;2.20;99.90
20946;DHT22;10632;51.276;7.116;2023-12-07T05:51:36;2.20;99.90
20946;DHT22;10632;51.276;7.116;2023-12-07T05:54:07;2.20;99.90
20946;DHT22;10632;51.276;7.116;2023-12-07T05:56:33;2.20;99.90
20946;DHT22;10632;51.276;7.116;2023-12-07T05:59:00;2.20;99.90
20946;DHT22;10632;51.276;7.116;2023-12-07T06:01:27;2.20;99.90
20946;DHT22;10632;51.276;7.116;2023-12-07T06:03:54;2.20;99.90
20946;DHT22;10632;51.276;7.116;2023-12-07T06:06:21;2.20;99.90
20946;DHT22;10632;51.276;7.116;2023-12-07T06:08:48;2.20;99.90
20946;DHT22;10632;51.276;7.116;2023-12-07T06:11:16;2.10;99.90
20946;DHT22;10632;51.276;7.116;2023-12-07T06:13:43;2.10;99.90
20946;DHT22;10632;51.276;7.116;2023-12-07T06:16:16;2.10;99.90
20946;DHT22;10632;51.276;7.116;2023-12-07T06:18:44;2.10;99.90
20946;DHT22;10632;51.276;7.116;2023-12-07T06:21:13;2.10;99.90
20946;DHT22;10632;51.276;7.116;2023-12-07T06:23:40;2.10;99.90
20946;DHT22;10632;51.276;7.116;2023-12-07T06:26:07;2.10;99.90
20946;DHT22;10632;51.276;7.116;2023-12-07T06:28:35;2.00;99.90
20946;DHT22;10632;51.276;7.116;2023-12-07T06:31:05;2.00;99.90
20946;DHT22;10632;51.276;7.116;2023-12-07T06:33:33;2.00;99.90
20946;DHT22;10632;51.276;7.116;2023-12-07T06:36:00;2.10;99.90
20946;DHT22;10632;51.276;7.116;2023-12-07T06:38:28;2.00;99.90
20946;DHT22;10632;51.276;7.116;2023-12-07T06:40:55;2.10;99.90
20946;DHT22;10632;51.276;7.116;2023-12-07T06:43:23;2.10;99.90
20946;DHT22;10632;51.276;7.116;2023-12-07T06:45:51;2.10;99.90
20946;DHT22;10632;51.276;7.116;2023-12-07T06:48:18;2.00;99.90
20946;DHT22;10632;51.276;7.116;2023-12-07T06:50:45;2.00;99.90
20946;DHT22;10632;51.276;7.116;2023-12-07T06:53:13;2.00;99.90
20946;DHT22;10632;51.276;7.116;2023-12-07T06:55:41;2.00;99.90
20946;DHT22;10632;51.276;7.116;2023-12-07T06:58:09;1.90;99.90
20946;DHT22;10632;51.276;7.116;2023-12-07T07:00:36;1.90;99.90
20946;DHT22;10632;51.276;7.116;2023-12-07T07:03:04;1.90;99.90
20946;DHT22;10632;51.276;7.116;2023-12-07T07:05:31;1.90;99.90
20946;DHT22;10632;51.276;7.116;2023-12-07T07:07:58;1.80;99.90
20946;DHT22;10632;51.276;7.116;2023-12-07T07:10:25;1.80;99.90
20946;DHT22;10632;51.276;7.116;2023-12-07T07:12:52;1.80;99.90
20946;DHT22;10632;51.276;7.116;2023-12-07T07:15:19;1.80;99.90
20946;DHT22;10632;51.276;7.116;2023-12-07T07:17:46;1.80;99.90
20946;DHT22;10632;51.276;7.116;2023-12-07T07:20:14;1.80;99.90
20946;DHT22;10632;51.276;7.116;2023-12-07T07:22:41;1.80;99.90
20946;DHT22;10632;51.276;7.116;2023-12-07T07:25:08;1.80;99.90
20946;DHT22;10632;51.276;7.116;2023-12-07T07:27:35;1.80;99.90
20946;DHT22;10632;51.276;7.116;2023-12-07T07:30:04;1.80;99.90
20946;DHT22;10632;51.276;7.116;2023-12-07T07:32:31;1.80;99.90
20946;DHT22;10632;51.276;7.116;2023-12-07T07:34:58;1.80;99.90
20946;DHT22;10632;51.276;7.116;2023-12-07T07:37:26;1.70;99.90
20946;DHT22;10632;51.276;7.116;2023-12-07T07:39:53;1.70;99.90
20946;DHT22;10632;51.276;7.116;2023-12-07T07:42:20;1.70;99.90
20946;DHT22;10632;51.276;7.116;2023-12-07T07:44:46;1.80;99.90
20946;DHT22;10632;51.276;7.116;2023-12-07T07:47:13;1.80;99.90
20946;DHT22;10632;51.276;7.116;2023-12-07T07:49:40;1.70;99.90
20946;DHT22;10632;51.276;7.116;2023-12-07T07:52:09;1.80;99.90
20946;DHT22;10632;51.276;7.116;2023-12-07T07:54:38;1.80;99.90
20946;DHT22;10632;51.276;7.116;2023-12-07T07:57:05;1.70;99.90
20946;DHT22;10632;51.276;7.116;2023-12-07T07:59:35;1.70;99.90
20946;DHT22;10632;51.276;7.116;2023-12-07T08:02:02;1.70;99.90
20946;DHT22;10632;51.276;7.116;2023-12-07T08:04:29;1.70;99.90
20946;DHT22;10632;51.276;7.116;2023-12-07T08:06:56;1.60;99.90
20946;DHT22;10632;51.276;7.116;2023-12-07T08:09:23;1.60;99.90
20946;DHT22;10632;51.276;7.116;2023-12-07T08:11:51;1.60;99.90
20946;DHT22;10632;51.276;7.116;2023-12-07T08:14:21;1.60;99.90
20946;DHT22;10632;51.276;7.116;2023-12-07T08:16:48;1.60;99.90
20946;DHT22;10632;51.276;7.116;2023-12-07T08:19:15;1.60;99.90
20946;DHT22;10632;51.276;7.116;2023-12-07T08:21:41;1.60;99.90
20946;DHT22;10632;51.276;7.116;2023-12-07T08:24:08;1.60;99.90
20946;DHT22;10632;51.276;7.116;2023-12-07T08:26:36;1.50;99.90
20946;DHT22;10632;51.276;7.116;2023-12-07T08:29:04;1.50;99.90
20946;DHT22;10632;51.276;7.116;2023-12-07T08:31:32;1.50;99.90
20946;DHT22;10632;51.276;7.116;2023-12-07T08:33:59;1.50;99.90
20946;DHT22;10632;51.276;7.116;2023-12-07T08:36:26;1.50;99.90
20946;DHT22;10632;51.276;7.116;2023-12-07T08:38:53;1.50;99.90
20946;DHT22;10632;51.276;7.116;2023-12-07T08:41:20;1.50;99.90
20946;DHT22;10632;51.276;7.116;2023-12-07T08:43:47;1.60;99.90
20946;DHT22;10632;51.276;7.116;2023-12-07T08:46:15;1.60;99.90
20946;DHT22;10632;51.276;7.116;2023-12-07T08:48:42;1.60;99.90
20946;DHT22;10632;51.276;7.116;2023-12-07T08:51:09;1.60;99.90
20946;DHT22;10632;51.276;7.116;2023-12-07T08:53:37;1.60;99.90
20946;DHT22;10632;51.276;7.116;2023-12-07T08:56:05;1.70;99.90
20946;DHT22;10632;51.276;7.116;2023-12-07T08:58:31;1.70;99.90
20946;DHT22;10632;51.276;7.116;2023-12-07T09:00:58;1.70;99.90
20946;DHT22;10632;51.276;7.116;2023-12-07T09:03:27;1.70;99.90
20946;DHT22;10632;51.276;7.116;2023-12-07T09:05:57;1.90;99.90
20946;DHT22;10632;51.276;7.116;2023-12-07T09:08:24;2.00;99.90
20946;DHT22;10632;51.276;7.116;2023-12-07T09:10:51;2.00;99.90
20946;DHT22;10632;51.276;7.116;2023-12-07T09:13:18;2.00;99.90
20946;DHT22;10632;51.276;7.116;2023-12-07T09:15:45;2.00;99.90
20946;DHT22;10632;51.276;7.116;2023-12-07T09:18:11;2.00;99.90
20946;DHT22;10632;51.276;7.116;2023-12-07T09:20:40;2.00;99.90
20946;DHT22;10632;51.276;7.116;2023-12-07T09:23:11;2.00;99.90
20946;DHT22;10632;51.276;7.116;2023-12-07T09:25:38;2.10;99.90
20946;DHT22;10632;51.276;7.116;2023-12-07T09:28:06;2.10;99.90
20946;DHT22;10632;51.276;7.116;2023-12-07T09:30:33;2.20;99.90
20946;DHT22;10632;51.276;7.116;2023-12-07T09:33:01;2.60;99.90
20946;DHT22;10632;51.276;7.116;2023-12-07T09:35:29;2.60;99.90
20946;DHT22;10632;51.276;7.116;2023-12-07T09:37:57;2.60;99.90
20946;DHT22;10632;51.276;7.116;2023-12-07T09:40:24;2.70;99.90
20946;DHT22;10632;51.276;7.116;2023-12-07T09:42:53;2.60;99.90
20946;DHT22;10632;51.276;7.116;2023-12-07T09:45:20;2.60;99.90
20946;DHT22;10632;51.276;7.116;2023-12-07T09:47:49;2.60;99.90
20946;DHT22;10632;51.276;7.116;2023-12-07T09:50:17;2.60;99.90
20946;DHT22;10632;51.276;7.116;2023-12-07T09:52:48;2.60;99.90
20946;DHT22;10632;51.276;7.116;2023-12-07T09:55:23;2.70;99.90
20946;DHT22;10632;51.276;7.116;2023-12-07T09:57:51;2.60;99.90
20946;DHT22;10632;51.276;7.116;2023-12-07T10:00:20;2.70;99.90
20946;DHT22;10632;51.276;7.116;2023-12-07T10:02:47;2.70;99.90
20946;DHT22;10632;51.276;7.116;2023-12-07T10:05:15;2.70;99.90
20946;DHT22;10632;51.276;7.116;2023-12-07T10:07:43;2.70;99.90
20946;DHT22;10632;51.276;7.116;2023-12-07T10:10:12;2.80;99.90
20946;DHT22;10632;51.276;7.116;2023-12-07T10:12:46;2.80;99.90
20946;DHT22;10632;51.276;7.116;2023-12-07T10:15:15;2.80;99.90
20946;DHT22;10632;51.276;7.116;2023-12-07T10:17:47;2.80;99.90
20946;DHT22;10632;51.276;7.116;2023-12-07T10:20:15;2.90;99.90
20946;DHT22;10632;51.276;7.116;2023-12-07T10:22:46;2.90;99.90
20946;DHT22;10632;51.276;7.116;2023-12-07T10:25:13;3.00;99.90
20946;DHT22;10632;51.276;7.116;2023-12-07T10:27:41;3.00;99.90
20946;DHT22;10632;51.276;7.116;2023-12-07T10:30:11;3.00;99.90
20946;DHT22;10632;51.276;7.116;2023-12-07T10:32:39;3.00;99.90
20946;DHT22;10632;51.276;7.116;2023-12-07T10:35:07;3.10;99.90
20946;DHT22;10632;51.276;7.116;2023-12-07T10:37:35;3.10;99.90
20946;DHT22;10632;51.276;7.116;2023-12-07T10:40:04;3.10;99.90
20946;DHT22;10632;51.276;7.116;2023-12-07T10:42:34;3.20;99.90
20946;DHT22;10632;51.276;7.116;2023-12-07T10:45:07;3.40;99.90
20946;DHT22;10632;51.276;7.116;2023-12-07T10:47:44;3.40;99.90
20946;DHT22;10632;51.276;7.116;2023-12-07T10:50:17;3.30;99.90
20946;DHT22;10632;51.276;7.116;2023-12-07T10:52:52;3.20;99.90
20946;DHT22;10632;51.276;7.116;2023-12-07T10:55:21;3.20;99.90
20946;DHT22;10632;51.276;7.116;2023-12-07T10:57:52;3.10;99.90
20946;DHT22;10632;51.276;7.116;2023-12-07T11:00:19;3.10;99.90
20946;DHT22;10632;51.276;7.116;2023-12-07T11:02:51;3.00;99.90
20946;DHT22;10632;51.276;7.116;2023-12-07T11:05:18;3.00;99.90
20946;DHT22;10632;51.276;7.116;2023-12-07T11:07:50;2.90;99.90
20946;DHT22;10632;51.276;7.116;2023-12-07T11:10:23;2.80;99.90
20946;DHT22;10632;51.276;7.116;2023-12-07T11:12:58;2.70;99.90
20946;DHT22;10632;51.276;7.116;2023-12-07T11:15:27;2.60;99.90
20946;DHT22;10632;51.276;7.116;2023-12-07T11:17:56;2.50;99.90
20946;DHT22;10632;51.276;7.116;2023-12-07T11:20:34;2.40;99.90
20946;DHT22;10632;51.276;7.116;2023-12-07T11:23:07;2.30;99.90
20946;DHT22;10632;51.276;7.116;2023-12-07T11:25:34;2.20;99.90
20946;DHT22;10632;51.276;7.116;2023-12-07T11:28:01;2.20;99.90
20946;DHT22;10632;51.276;7.116;2023-12-07T11:30:30;2.10;99.90
20946;DHT22;10632;51.276;7.116;2023-12-07T11:32:59;2.20;99.90
20946;DHT22;10632;51.276;7.116;2023-12-07T11:35:26;2.10;99.90
20946;DHT22;10632;51.276;7.116;2023-12-07T11:38:06;2.10;99.90
20946;DHT22;10632;51.276;7.116;2023-12-07T11:40:38;2.10;99.90
20946;DHT22;10632;51.276;7.116;2023-12-07T11:43:06;2.10;99.90
20946;DHT22;10632;51.276;7.116;2023-12-07T11:45:41;2.20;99.90
20946;DHT22;10632;51.276;7.116;2023-12-07T11:48:11;2.20;99.90
20946;DHT22;10632;51.276;7.116;2023-12-07T11:50:57;2.20;99.90
20946;DHT22;10632;51.276;7.116;2023-12-07T11:53:24;2.30;99.90
20946;DHT22;10632;51.276;7.116;2023-12-07T11:55:52;2.40;99.90
20946;DHT22;10632;51.276;7.116;2023-12-07T11:58:19;2.40;99.90
20946;DHT22;10632;51.276;7.116;2023-12-07T12:00:46;2.40;99.90
20946;DHT22;10632;51.276;7.116;2023-12-07T12:03:15;2.40;99.90
20946;DHT22;10632;51.276;7.116;2023-12-07T12:05:42;2.50;99.90
20946;DHT22;10632;51.276;7.116;2023-12-07T12:08:09;2.50;99.90
20946;DHT22;10632;51.276;7.116;2023-12-07T12:10:37;2.60;99.90
20946;DHT22;10632;51.276;7.116;2023-12-07T12:13:04;2.60;99.90
20946;DHT22;10632;51.276;7.116;2023-12-07T12:15:32;2.70;99.90
20946;DHT22;10632;51.276;7.116;2023-12-07T12:18:00;2.70;99.90
20946;DHT22;10632;51.276;7.116;2023-12-07T12:20:28;2.80;99.90
20946;DHT22;10632;51.276;7.116;2023-12-07T12:22:55;2.80;99.90
20946;DHT22;10632;51.276;7.116;2023-12-07T12:25:23;2.80;99.90
20946;DHT22;10632;51.276;7.116;2023-12-07T12:27:52;2.80;99.90
20946;DHT22;10632;51.276;7.116;2023-12-07T12:30:20;2.90;99.90
20946;DHT22;10632;51.276;7.116;2023-12-07T12:32:48;2.90;99.90
20946;DHT22;10632;51.276;7.116;2023-12-07T12:35:16;2.90;99.90
20946;DHT22;10632;51.276;7.116;2023-12-07T12:37:45;3.00;99.90
20946;DHT22;10632;51.276;7.116;2023-12-07T12:40:14;3.10;99.90
20946;DHT22;10632;51.276;7.116;2023-12-07T12:42:42;3.20;99.90
20946;DHT22;10632;51.276;7.116;2023-12-07T12:45:10;3.40;99.90
20946;DHT22;10632;51.276;7.116;2023-12-07T12:47:38;3.70;99.90
20946;DHT22;10632;51.276;7.116;2023-12-07T12:50:05;3.90;99.90
20946;DHT22;10632;51.276;7.116;2023-12-07T12:52:32;4.30;99.90
20946;DHT22;10632;51.276;7.116;2023-12-07T12:55:01;4.60;99.90
20946;DHT22;10632;51.276;7.116;2023-12-07T12:57:28;4.80;99.90
20946;DHT22;10632;51.276;7.116;2023-12-07T12:59:55;5.00;99.90
20946;DHT22;10632;51.276;7.116;2023-12-07T13:02:22;5.10;99.90
20946;DHT22;10632;51.276;7.116;2023-12-07T13:04:49;5.30;99.90
20946;DHT22;10632;51.276;7.116;2023-12-07T13:07:16;5.50;99.90
20946;DHT22;10632;51.276;7.116;2023-12-07T13:09:43;5.50;99.90
20946;DHT22;10632;51.276;7.116;2023-12-07T13:12:11;5.60;99.90
20946;DHT22;10632;51.276;7.116;2023-12-07T13:14:39;5.70;99.90
20946;DHT22;10632;51.276;7.116;2023-12-07T13:17:06;5.70;99.90
20946;DHT22;10632;51.276;7.116;2023-12-07T13:19:34;5.60;99.90
20946;DHT22;10632;51.276;7.116;2023-12-07T13:22:01;5.60;99.90
20946;DHT22;10632;51.276;7.116;2023-12-07T13:24:28;5.50;99.90
20946;DHT22;10632;51.276;7.116;2023-12-07T13:26:57;5.30;99.90
20946;DHT22;10632;51.276;7.116;2023-12-07T13:29:27;5.20;99.90
20946;DHT22;10632;51.276;7.116;2023-12-07T13:31:54;5.10;99.90
20946;DHT22;10632;51.276;7.116;2023-12-07T13:34:22;5.10;99.90
20946;DHT22;10632;51.276;7.116;2023-12-07T13:36:51;4.90;99.90
20946;DHT22;10632;51.276;7.116;2023-12-07T13:39:18;4.70;99.90
20946;DHT22;10632;51.276;7.116;2023-12-07T13:41:46;4.60;99.90
20946;DHT22;10632;51.276;7.116;2023-12-07T13:44:15;4.50;99.90
20946;DHT22;10632;51.276;7.116;2023-12-07T13:46:44;4.40;99.90
20946;DHT22;10632;51.276;7.116;2023-12-07T13:49:11;4.40;99.90
20946;DHT22;10632;51.276;7.116;2023-12-07T13:51:40;4.40;99.90
20946;DHT22;10632;51.276;7.116;2023-12-07T13:54:07;4.40;99.90
20946;DHT22;10632;51.276;7.116;2023-12-07T13:56:34;4.50;99.90
20946;DHT22;10632;51.276;7.116;2023-12-07T13:59:01;4.50;99.90
20946;DHT22;10632;51.276;7.116;2023-12-07T14:01:28;4.50;99.90
20946;DHT22;10632;51.276;7.116;2023-12-07T14:03:58;4.40;99.90
20946;DHT22;10632;51.276;7.116;2023-12-07T14:06:27;4.40;99.90
20946;DHT22;10632;51.276;7.116;2023-12-07T14:08:54;4.20;99.90
20946;DHT22;10632;51.276;7.116;2023-12-07T14:11:21;4.20;99.90
20946;DHT22;10632;51.276;7.116;2023-12-07T14:13:48;4.10;99.90
20946;DHT22;10632;51.276;7.116;2023-12-07T14:16:19;4.00;99.90
20946;DHT22;10632;51.276;7.116;2023-12-07T14:18:46;3.90;99.90
20946;DHT22;10632;51.276;7.116;2023-12-07T14:21:19;3.80;99.90
20946;DHT22;10632;51.276;7.116;2023-12-07T14:23:46;3.80;99.90
20946;DHT22;10632;51.276;7.116;2023-12-07T14:26:13;3.70;99.90
20946;DHT22;10632;51.276;7.116;2023-12-07T14:28:39;3.60;99.90
20946;DHT22;10632;51.276;7.116;2023-12-07T14:31:07;3.50;99.90
20946;DHT22;10632;51.276;7.116;2023-12-07T14:33:39;3.50;99.90
20946;DHT22;10632;51.276;7.116;2023-12-07T14:36:09;3.40;99.90
20946;DHT22;10632;51.276;7.116;2023-12-07T14:38:38;3.30;99.90
20946;DHT22;10632;51.276;7.116;2023-12-07T14:41:05;3.30;99.90
20946;DHT22;10632;51.276;7.116;2023-12-07T14:43:35;3.20;99.90
20946;DHT22;10632;51.276;7.116;2023-12-07T14:46:02;3.10;99.90
20946;DHT22;10632;51.276;7.116;2023-12-07T14:48:29;3.10;99.90
20946;DHT22;10632;51.276;7.116;2023-12-07T14:50:56;3.00;99.90
20946;DHT22;10632;51.276;7.116;2023-12-07T14:53:23;2.90;99.90
20946;DHT22;10632;51.276;7.116;2023-12-07T14:55:52;2.90;99.90
20946;DHT22;10632;51.276;7.116;2023-12-07T14:58:19;2.90;99.90
20946;DHT22;10632;51.276;7.116;2023-12-07T15:00:46;2.80;99.90
20946;DHT22;10632;51.276;7.116;2023-12-07T15:03:13;2.90;99.90
20946;DHT22;10632;51.276;7.116;2023-12-07T15:05:40;3.00;99.90
20946;DHT22;10632;51.276;7.116;2023-12-07T15:08:07;3.00;99.90
20946;DHT22;10632;51.276;7.116;2023-12-07T15:10:34;2.90;99.90
20946;DHT22;10632;51.276;7.116;2023-12-07T15:13:03;2.90;99.90
20946;DHT22;10632;51.276;7.116;2023-12-07T15:15:29;2.80;99.90
20946;DHT22;10632;51.276;7.116;2023-12-07T15:17:56;2.80;99.90
20946;DHT22;10632;51.276;7.116;2023-12-07T15:20:23;2.70;99.90
20946;DHT22;10632;51.276;7.116;2023-12-07T15:22:50;2.70;99.90
20946;DHT22;10632;51.276;7.116;2023-12-07T15:25:17;2.60;99.90
20946;DHT22;10632;51.276;7.116;2023-12-07T15:27:46;2.60;99.90
20946;DHT22;10632;51.276;7.116;2023-12-07T15:30:15;2.50;99.90
20946;DHT22;10632;51.276;7.116;2023-12-07T15:32:42;2.50;99.90
20946;DHT22;10632;51.276;7.116;2023-12-07T15:35:09;2.50;99.90
20946;DHT22;10632;51.276;7.116;2023-12-07T15:37:36;2.50;99.90
20946;DHT22;10632;51.276;7.116;2023-12-07T15:40:03;2.40;99.90
20946;DHT22;10632;51.276;7.116;2023-12-07T15:42:30;2.40;99.90
20946;DHT22;10632;51.276;7.116;2023-12-07T15:44:57;2.40;99.90
20946;DHT22;10632;51.276;7.116;2023-12-07T15:47:26;2.40;99.90
20946;DHT22;10632;51.276;7.116;2023-12-07T15:49:53;2.30;99.90
20946;DHT22;10632;51.276;7.116;2023-12-07T15:52:25;2.30;99.90
20946;DHT22;10632;51.276;7.116;2023-12-07T15:54:52;2.30;99.90